Terminal Aerodrome Forecast
Issued by NWS Portland, OR

Home | Current Version | Previous Version | Text Only | Print | Product List | Glossary On
Versions: 1 2 3 4 5 6 7 8 9 10 11 12 13 14 15 16 17 18 19 20 21 22 23 24 25 26 27 28 29 30 31 32 33 34 35 36 37
000
FTUS46 KPQR 280528
TAFSLE
TAF
KSLE 280528Z 2806/2906 00000KT P6SM SCT007 OVC025
      TEMPO 2808/2812 2SM BR OVC006
     FM281700 15004KT 3SM BR SCT006 OVC015
     FM282100 16005KT 5SM BR SCT015 OVC030
     FM282300 VRB03KT P6SM BKN040 OVC060=

USA.gov is the U.S. government's official web portal to all federal, state and local government web resources and services.